Time;durP1;ratioP1;P1;durP2;ratioP2;P2;SDS_P1;SDS_P2;PMS_P1;PMS_P2;Temp;Humidity;BMP_temperature;BMP_pressure;BME280_temperature;BME280_humidity;BME280_pressure;Samples;Min_cycle;Max_cycle;Signal;HPM_P1;HPM_P2
2024/03/13 00:01:27;;;;;;;11.60;4.07;;;;;;;7.76;100.00;96300.91;5038590;28;20213;-66
2024/03/13 00:03:53;;;;;;;10.33;4.30;;;;;;;7.97;100.00;96298.69;5038915;28;20229;-67
2024/03/13 00:06:21;;;;;;;11.60;4.07;;;;;;;7.99;100.00;96302.81;5038136;28;20713;-67
2024/03/13 00:08:47;;;;;;;8.90;3.40;;;;;;;7.91;100.00;96297.50;5038179;28;20209;-66
2024/03/13 00:11:14;;;;;;;7.17;3.40;;;;;;;7.95;100.00;96287.53;5039061;28;20197;-67
2024/03/13 00:13:42;;;;;;;10.80;4.17;;;;;;;7.92;100.00;96298.34;5037765;28;20317;-67
2024/03/13 00:16:12;;;;;;;11.67;4.27;;;;;;;8.37;100.00;96288.31;5037615;28;20208;-67
2024/03/13 00:18:38;;;;;;;10.37;3.10;;;;;;;8.28;100.00;96289.28;5038944;28;20201;-66
2024/03/13 00:21:05;;;;;;;9.37;3.83;;;;;;;8.28;100.00;96282.22;5039020;28;20518;-67
2024/03/13 00:23:31;;;;;;;8.50;3.47;;;;;;;8.40;100.00;96282.72;5038990;28;20205;-67
2024/03/13 00:25:59;;;;;;;7.97;3.53;;;;;;;8.20;100.00;96284.03;5037945;28;20220;-66
2024/03/13 00:28:26;;;;;;;7.60;3.20;;;;;;;7.86;100.00;96282.44;5038789;28;20205;-66
2024/03/13 00:30:52;;;;;;;8.07;3.40;;;;;;;7.99;100.00;96273.94;5037942;28;20213;-67
2024/03/13 00:33:20;;;;;;;6.53;2.90;;;;;;;8.12;100.00;96270.81;5038459;28;20205;-66
2024/03/13 00:35:46;;;;;;;11.13;3.40;;;;;;;7.99;100.00;96270.47;5037681;28;20201;-67
2024/03/13 00:38:13;;;;;;;5.90;3.13;;;;;;;8.23;100.00;96265.31;5038289;28;20201;-67
2024/03/13 00:40:44;;;;;;;5.87;2.73;;;;;;;7.99;100.00;96257.34;5038415;28;20798;-67
2024/03/13 00:43:11;;;;;;;7.73;2.83;;;;;;;8.11;100.00;96261.34;5038057;28;20298;-67
2024/03/13 00:45:38;;;;;;;7.10;3.90;;;;;;;8.24;100.00;96259.91;5037471;28;20239;-66
2024/03/13 00:48:05;;;;;;;10.33;3.47;;;;;;;8.14;100.00;96255.78;5038867;28;20579;-67
2024/03/13 00:50:33;;;;;;;8.30;3.00;;;;;;;8.10;100.00;96257.06;5038197;28;20197;-67
2024/03/13 00:52:59;;;;;;;9.27;3.50;;;;;;;8.01;100.00;96255.41;5038058;28;20694;-67
2024/03/13 00:55:27;;;;;;;5.67;2.97;;;;;;;7.77;100.00;96252.72;5037973;28;20213;-67
2024/03/13 00:57:53;;;;;;;5.87;2.80;;;;;;;7.51;100.00;96261.63;5037046;28;20205;-67
2024/03/13 01:00:22;;;;;;;8.17;3.00;;;;;;;7.87;100.00;96251.59;5037821;28;20671;-66
2024/03/13 01:02:48;;;;;;;4.83;2.53;;;;;;;7.87;100.00;96254.22;5038172;28;20201;-67
2024/03/13 01:05:16;;;;;;;5.30;2.53;;;;;;;7.86;100.00;96243.88;5036746;28;20225;-67
2024/03/13 01:07:44;;;;;;;5.07;2.60;;;;;;;7.80;100.00;96249.75;5037253;28;20224;-67
2024/03/13 01:10:11;;;;;;;3.90;2.10;;;;;;;7.73;100.00;96250.59;5038782;28;20283;-67
2024/03/13 01:12:39;;;;;;;4.17;2.37;;;;;;;8.05;100.00;96248.84;5038115;28;20574;-67
2024/03/13 01:15:06;;;;;;;3.73;2.10;;;;;;;7.97;100.00;96240.97;5037765;28;20715;-67
2024/03/13 01:17:34;;;;;;;4.20;2.20;;;;;;;7.98;100.00;96240.81;5037806;28;20208;-66
2024/03/13 01:20:01;;;;;;;4.77;2.40;;;;;;;7.81;100.00;96237.50;5038529;28;20204;-66
2024/03/13 01:22:28;;;;;;;4.33;2.37;;;;;;;7.78;100.00;96233.38;5038356;28;20678;-67
2024/03/13 01:24:57;;;;;;;3.60;1.93;;;;;;;7.96;100.00;96241.94;5037069;28;20279;-67
2024/03/13 01:27:23;;;;;;;6.17;2.23;;;;;;;7.86;100.00;96234.19;5038073;28;20209;-67
2024/03/13 01:29:50;;;;;;;4.77;2.30;;;;;;;7.74;100.00;96232.06;5037748;28;20198;-67
2024/03/13 01:32:17;;;;;;;5.60;2.70;;;;;;;7.97;100.00;96227.84;5039236;28;20288;-67
2024/03/13 01:34:45;;;;;;;5.13;2.07;;;;;;;7.82;100.00;96232.06;5038864;28;20225;-67
2024/03/13 01:39:57;;;;;;;5.60;1.80;;;;;;;7.98;100.00;96227.69;5039030;28;20216;-67
2024/03/13 01:56:24;;;;;;;2.40;1.37;;;;;;;7.45;100.00;96213.28;5036813;28;20248;-67
2024/03/13 01:59:02;;;;;;;4.03;1.60;;;;;;;7.58;100.00;96204.97;5038088;28;20588;-67
2024/03/13 02:04:12;;;;;;;2.20;1.17;;;;;;;7.59;100.00;96211.84;5037949;28;20231;-67
2024/03/13 02:06:39;;;;;;;4.03;1.90;;;;;;;7.60;100.00;96209.06;5037529;28;20602;-67
2024/03/13 02:09:06;;;;;;;3.17;1.50;;;;;;;7.30;100.00;96214.03;5037780;28;20293;-67
2024/03/13 02:11:35;;;;;;;2.63;1.03;;;;;;;7.36;100.00;96219.47;5036438;28;20201;-67
2024/03/13 02:14:04;;;;;;;2.93;1.30;;;;;;;7.30;100.00;96221.91;5036338;28;20312;-67
2024/03/13 02:16:31;;;;;;;2.57;1.00;;;;;;;7.17;100.00;96215.47;5036465;28;20197;-66
2024/03/13 02:18:59;;;;;;;1.17;0.90;;;;;;;7.18;100.00;96215.31;5036183;28;20204;-67
2024/03/13 02:21:25;;;;;;;1.60;0.97;;;;;;;7.11;100.00;96210.84;5036561;28;20658;-67
2024/03/13 02:23:52;;;;;;;2.10;1.30;;;;;;;6.98;100.00;96199.97;5035044;28;20221;-67
2024/03/13 02:26:19;;;;;;;1.50;0.87;;;;;;;6.93;100.00;96213.53;5016818;28;20614;-67
2024/03/13 02:28:45;;;;;;;2.30;1.00;;;;;;;7.11;100.00;96210.84;5017096;28;20223;-68
2024/03/13 02:31:12;;;;;;;1.67;1.10;;;;;;;6.98;100.00;96215.69;5021631;28;20201;-67
2024/03/13 02:33:38;;;;;;;1.07;0.80;;;;;;;7.08;100.00;96211.97;5019459;28;20206;-68
2024/03/13 02:36:05;;;;;;;2.50;1.43;;;;;;;7.02;100.00;96209.16;5024589;28;20197;-67
2024/03/13 02:38:32;;;;;;;1.23;1.13;;;;;;;7.01;100.00;96208.31;5020510;28;20240;-67
2024/03/13 02:40:58;;;;;;;1.07;0.90;;;;;;;6.63;100.00;96200.06;5028228;28;20695;-67
2024/03/13 02:43:25;;;;;;;2.03;0.90;;;;;;;6.78;100.00;96211.63;5024665;28;20197;-67
2024/03/13 02:45:52;;;;;;;1.73;1.10;;;;;;;6.89;100.00;96216.63;5020785;28;20225;-67
2024/03/13 02:48:18;;;;;;;2.93;1.13;;;;;;;7.02;100.00;96201.31;5020066;28;20646;-68
2024/03/13 02:50:45;;;;;;;0.80;0.60;;;;;;;6.71;100.00;96210.63;5023869;28;20201;-67
2024/03/13 02:53:12;;;;;;;0.97;0.73;;;;;;;6.57;100.00;96199.88;5027999;28;20482;-70
2024/03/13 02:55:38;;;;;;;2.60;0.90;;;;;;;6.85;100.00;96205.63;5025835;28;20225;-70
2024/03/13 02:58:05;;;;;;;1.37;0.90;;;;;;;6.69;100.00;96213.41;5027181;28;20263;-70
2024/03/13 03:00:31;;;;;;;1.20;0.70;;;;;;;6.57;100.00;96216.41;5024269;28;20288;-70
2024/03/13 03:02:58;;;;;;;1.27;0.90;;;;;;;6.55;100.00;96212.31;5028062;28;20217;-70
2024/03/13 03:05:25;;;;;;;1.33;0.73;;;;;;;6.62;100.00;96208.94;5023505;28;20225;-70
2024/03/13 03:07:51;;;;;;;1.60;0.90;;;;;;;6.55;100.00;96205.25;5023614;28;20541;-70
2024/03/13 03:10:18;;;;;;;1.73;0.80;;;;;;;6.50;100.00;96215.38;5024084;28;20209;-70
2024/03/13 03:12:45;;;;;;;4.30;0.97;;;;;;;6.61;100.00;96209.91;5026587;28;20197;-70
2024/03/13 03:15:11;;;;;;;2.23;1.00;;;;;;;6.72;100.00;96215.69;5025967;28;20225;-70
2024/03/13 03:17:38;;;;;;;0.90;0.77;;;;;;;6.62;100.00;96219.41;5021220;28;20315;-70
2024/03/13 03:20:06;;;;;;;0.40;0.30;;;;;;;6.48;100.00;96217.34;5026772;28;20205;-70
2024/03/13 03:22:32;;;;;;;0.40;0.40;;;;;;;6.31;100.00;96218.19;5021965;28;20324;-70
2024/03/13 03:24:59;;;;;;;0.40;0.40;;;;;;;6.11;100.00;96213.28;5021834;28;20359;-70
2024/03/13 03:27:26;;;;;;;0.30;0.30;;;;;;;6.08;100.00;96209.16;5023175;28;20327;-70
2024/03/13 03:29:53;;;;;;;0.30;0.30;;;;;;;6.13;100.00;96227.00;5026438;28;20212;-70
2024/03/13 03:32:19;;;;;;;0.83;0.43;;;;;;;6.19;100.00;96221.19;5023743;28;20208;-70
2024/03/13 03:34:46;;;;;;;0.20;0.20;;;;;;;6.27;100.00;96222.06;5029918;28;20236;-70
2024/03/13 03:37:13;;;;;;;0.40;0.40;;;;;;;6.15;100.00;96217.22;5022620;28;20701;-70
2024/03/13 03:39:40;;;;;;;0.30;0.30;;;;;;;5.97;100.00;96223.44;5023335;28;20673;-70
2024/03/13 03:42:07;;;;;;;0.37;0.37;;;;;;;6.10;100.00;96222.91;5023134;28;20201;-70
2024/03/13 03:44:33;;;;;;;2.20;1.00;;;;;;;6.32;100.00;96216.38;5020814;28;20256;-70
2024/03/13 03:47:00;;;;;;;0.50;0.50;;;;;;;6.37;100.00;96212.34;5018832;28;20228;-67
2024/03/13 03:49:27;;;;;;;0.60;0.60;;;;;;;6.41;100.00;96203.19;5022197;28;20667;-67
2024/03/13 03:51:53;;;;;;;0.40;0.40;;;;;;;6.50;100.00;96206.72;5019591;28;20201;-67
2024/03/13 03:54:21;;;;;;;0.40;0.40;;;;;;;6.03;100.00;96215.00;5025176;28;20497;-67
2024/03/13 03:56:48;;;;;;;2.00;0.50;;;;;;;6.16;100.00;96217.06;5024841;28;20205;-68
2024/03/13 03:59:15;;;;;;;0.50;0.50;;;;;;;6.24;100.00;96208.47;5025594;28;20213;-67
2024/03/13 04:01:41;;;;;;;3.03;0.63;;;;;;;6.07;100.00;96204.91;5022712;28;20209;-67
2024/03/13 04:04:08;;;;;;;0.80;0.60;;;;;;;6.35;100.00;96203.00;5022573;28;20225;-67
2024/03/13 04:06:35;;;;;;;0.90;0.60;;;;;;;6.26;100.00;96206.50;5018770;28;20221;-67
2024/03/13 04:09:11;;;;;;;0.73;0.67;;;;;;;6.04;100.00;96206.19;5025161;28;20213;-67
2024/03/13 04:11:40;;;;;;;4.83;1.67;;;;;;;6.18;100.00;96209.88;5024869;28;20296;-67
2024/03/13 04:14:07;;;;;;;4.50;1.50;;;;;;;6.11;100.00;96206.25;5021283;28;20611;-67
2024/03/13 04:16:34;;;;;;;7.27;3.40;;;;;;;6.31;100.00;96206.88;5018409;28;20201;-67
2024/03/13 04:19:00;;;;;;;6.87;3.00;;;;;;;6.40;100.00;96204.19;5024422;28;20211;-67
2024/03/13 04:21:27;;;;;;;5.83;2.83;;;;;;;6.29;100.00;96207.03;5022425;28;20550;-67
2024/03/13 04:23:54;;;;;;;6.00;2.67;;;;;;;6.36;100.00;96208.06;5023876;28;20227;-67
2024/03/13 04:26:21;;;;;;;4.90;2.50;;;;;;;6.11;100.00;96211.47;5021207;28;20891;-67
2024/03/13 04:28:48;;;;;;;1.37;1.27;;;;;;;6.15;100.00;96210.19;5022012;28;20212;-70
2024/03/13 04:31:15;;;;;;;2.53;1.20;;;;;;;6.02;100.00;96210.72;5024965;28;20205;-70
2024/03/13 04:33:42;;;;;;;1.37;0.80;;;;;;;6.26;100.00;96206.50;5021747;28;20221;-70
2024/03/13 04:36:09;;;;;;;2.30;1.30;;;;;;;6.29;100.00;96209.66;5021473;28;20209;-70
2024/03/13 04:38:35;;;;;;;1.77;0.90;;;;;;;6.52;100.00;96208.19;5018624;28;20212;-67
2024/03/13 04:41:02;;;;;;;2.20;0.97;;;;;;;6.45;100.00;96208.97;5021972;28;20237;-67
2024/03/13 04:43:30;;;;;;;0.80;0.80;;;;;;;6.46;100.00;96206.19;5019698;28;20205;-68
2024/03/13 04:45:57;;;;;;;1.53;0.70;;;;;;;6.45;100.00;96207.16;5021196;28;20257;-67
2024/03/13 04:48:25;;;;;;;1.20;0.80;;;;;;;6.48;100.00;96212.09;5018928;28;20198;-67
2024/03/13 04:50:52;;;;;;;2.20;0.70;;;;;;;6.28;100.00;96204.59;5021271;28;20205;-67
2024/03/13 04:53:22;;;;;;;0.63;0.40;;;;;;;6.50;100.00;96210.13;5024084;28;20646;-67
2024/03/13 04:55:49;;;;;;;1.10;0.60;;;;;;;6.34;100.00;96202.19;5024576;28;20215;-67
2024/03/13 04:58:16;;;;;;;1.20;1.00;;;;;;;6.55;100.00;96200.03;5021368;28;20235;-68
2024/03/13 05:00:42;;;;;;;1.47;0.90;;;;;;;6.50;100.00;96199.66;5020343;28;20205;-67
2024/03/13 05:03:09;;;;;;;1.83;0.77;;;;;;;6.56;100.00;96204.28;5018379;28;20205;-67
2024/03/13 05:05:36;;;;;;;0.97;0.83;;;;;;;6.41;100.00;96194.53;5022038;28;20223;-67
2024/03/13 05:08:02;;;;;;;1.20;0.97;;;;;;;6.26;100.00;96209.97;5017917;28;20232;-67
2024/03/13 05:10:29;;;;;;;1.47;0.70;;;;;;;6.09;100.00;96200.31;5026099;28;20380;-67
2024/03/13 05:12:56;;;;;;;0.83;0.67;;;;;;;5.86;100.00;96203.56;5023284;28;20774;-67
2024/03/13 05:15:22;;;;;;;0.87;0.60;;;;;;;6.14;100.00;96198.09;5024741;28;20417;-67
2024/03/13 05:17:50;;;;;;;0.83;0.80;;;;;;;6.26;100.00;96206.50;5022740;28;20588;-67
2024/03/13 05:20:17;;;;;;;2.53;1.00;;;;;;;6.25;100.00;96200.47;5021339;28;20216;-67
2024/03/13 05:22:45;;;;;;;1.17;0.73;;;;;;;6.21;100.00;96207.00;5022524;28;20201;-67
2024/03/13 05:25:16;;;;;;;0.93;0.73;;;;;;;6.32;100.00;96201.50;5018981;28;20773;-67
2024/03/13 05:27:45;;;;;;;1.30;0.90;;;;;;;6.40;100.00;96201.59;5022130;28;20271;-67
2024/03/13 05:30:12;;;;;;;0.67;0.60;;;;;;;6.27;100.00;96205.56;5022991;28;20213;-67
2024/03/13 05:32:39;;;;;;;0.87;0.60;;;;;;;6.20;100.00;96213.19;5019239;28;20205;-67
2024/03/13 05:35:06;;;;;;;2.07;0.90;;;;;;;6.34;100.00;96220.50;5021809;28;20614;-67
2024/03/13 05:37:34;;;;;;;1.73;0.80;;;;;;;6.31;100.00;96218.19;5018430;28;20456;-67
2024/03/13 05:40:01;;;;;;;2.73;1.10;;;;;;;6.45;100.00;96217.63;5020587;28;20201;-67
2024/03/13 05:42:28;;;;;;;1.37;1.00;;;;;;;6.50;100.00;96215.38;5020188;28;20231;-67
2024/03/13 05:44:55;;;;;;;1.13;0.80;;;;;;;6.36;100.00;96223.75;5023056;28;20232;-67
2024/03/13 05:47:21;;;;;;;1.07;0.70;;;;;;;6.26;100.00;96224.84;5020715;28;20225;-67
2024/03/13 05:49:48;;;;;;;0.97;0.80;;;;;;;6.62;100.00;96211.53;5022079;28;20209;-67
2024/03/13 05:52:14;;;;;;;1.13;0.80;;;;;;;6.68;100.00;96224.00;5018569;28;20206;-67
2024/03/13 05:54:41;;;;;;;1.60;0.90;;;;;;;6.66;100.00;96231.22;5021684;28;20235;-67
2024/03/13 05:57:07;;;;;;;1.20;0.90;;;;;;;6.70;100.00;96228.13;5017985;28;20197;-67
2024/03/13 05:59:34;;;;;;;1.10;1.00;;;;;;;6.76;100.00;96235.38;5018062;28;20205;-67
2024/03/13 06:02:00;;;;;;;1.53;1.00;;;;;;;6.80;100.00;96241.13;5021711;28;20207;-68
2024/03/13 06:04:27;;;;;;;1.60;0.90;;;;;;;6.83;100.00;96239.00;5021194;28;20217;-67
2024/03/13 06:06:55;;;;;;;2.07;1.20;;;;;;;6.83;100.00;96249.47;5021032;28;20609;-67
2024/03/13 06:09:22;;;;;;;0.90;0.80;;;;;;;6.92;100.00;96245.94;5023795;28;20683;-68
2024/03/13 06:11:49;;;;;;;1.77;0.90;;;;;;;6.94;100.00;96254.47;5017733;28;20205;-67
2024/03/13 06:14:16;;;;;;;2.77;1.13;;;;;;;7.02;100.00;96254.50;5025296;28;20225;-68
2024/03/13 06:16:43;;;;;;;3.03;1.07;;;;;;;6.87;100.00;96260.47;5020882;28;20284;-68
2024/03/13 06:19:11;;;;;;;2.53;1.40;;;;;;;6.95;100.00;96255.28;5025276;28;20221;-68
2024/03/13 06:21:38;;;;;;;2.07;1.00;;;;;;;6.94;100.00;96258.91;5021141;28;20251;-68
2024/03/13 06:24:06;;;;;;;1.47;1.00;;;;;;;7.09;100.00;96255.53;5026405;28;20232;-67
2024/03/13 06:26:33;;;;;;;1.17;0.73;;;;;;;7.16;100.00;96260.97;5022308;28;20228;-66
2024/03/13 06:31:44;;;;;;;3.70;1.80;;;;;;;7.12;100.00;96254.41;5029293;28;20204;-66
2024/03/13 06:34:10;;;;;;;5.27;1.90;;;;;;;6.96;100.00;96259.53;5026803;28;20821;-67
2024/03/13 06:36:39;;;;;;;3.20;1.73;;;;;;;7.24;100.00;96261.81;5020808;28;20208;-67
2024/03/13 06:39:05;;;;;;;2.13;1.53;;;;;;;7.26;100.00;96260.69;5022301;28;21126;-66
2024/03/13 06:41:32;;;;;;;2.80;1.63;;;;;;;7.29;100.00;96265.66;5021425;28;20205;-67
2024/03/13 06:43:59;;;;;;;2.57;1.50;;;;;;;7.33;100.00;96266.97;5021366;28;21130;-67
2024/03/13 06:46:28;;;;;;;2.43;1.60;;;;;;;7.43;100.00;96270.31;5022551;28;20711;-67
2024/03/13 06:48:54;;;;;;;2.10;1.50;;;;;;;7.41;100.00;96267.00;5021945;28;20205;-66
2024/03/13 06:51:21;;;;;;;2.93;1.73;;;;;;;7.21;100.00;96269.19;5022972;28;20680;-67
2024/03/13 06:53:48;;;;;;;1.97;1.43;;;;;;;7.30;100.00;96274.31;5021069;28;20221;-66
2024/03/13 06:56:16;;;;;;;4.00;2.10;;;;;;;7.30;100.00;96269.88;5023162;28;20218;-67
2024/03/13 06:58:43;;;;;;;3.23;1.70;;;;;;;7.49;100.00;96272.28;5027303;28;20287;-67
2024/03/13 07:01:13;;;;;;;3.73;1.40;;;;;;;7.82;100.00;96263.56;5021086;28;20211;-66
2024/03/13 07:03:40;;;;;;;2.53;1.43;;;;;;;7.62;100.00;96269.22;5021072;28;20197;-67
2024/03/13 07:06:07;;;;;;;2.00;1.60;;;;;;;7.68;100.00;96269.41;5020501;28;20201;-67
2024/03/13 07:08:35;;;;;;;1.53;1.30;;;;;;;7.65;100.00;96272.34;5021460;28;20221;-67
2024/03/13 07:11:03;;;;;;;1.67;1.20;;;;;;;7.75;100.00;96273.06;5021159;28;20752;-67
2024/03/13 07:13:29;;;;;;;2.23;0.87;;;;;;;7.73;100.00;96275.00;5020707;28;20224;-67
2024/03/13 07:15:56;;;;;;;1.33;1.00;;;;;;;7.84;100.00;96281.75;5020310;28;20215;-67
2024/03/13 07:18:23;;;;;;;1.90;1.17;;;;;;;7.87;100.00;96279.63;5020809;28;20205;-67
2024/03/13 07:20:49;;;;;;;2.27;1.37;;;;;;;7.95;100.00;96271.78;5020518;28;20212;-67
2024/03/13 07:23:16;;;;;;;1.20;0.90;;;;;;;7.88;100.00;96273.41;5022841;28;20209;-66
2024/03/13 07:25:43;;;;;;;1.70;1.30;;;;;;;7.96;100.00;96281.31;5020830;28;21041;-67
2024/03/13 07:28:11;;;;;;;2.73;1.57;;;;;;;7.95;100.00;96272.59;5020877;28;20453;-67
2024/03/13 07:30:38;;;;;;;2.30;1.33;;;;;;;7.99;100.00;96270.47;5020388;28;20197;-67
2024/03/13 07:33:08;;;;;;;2.70;1.30;;;;;;;8.04;100.00;96270.81;5021029;28;20218;-67
2024/03/13 07:35:34;;;;;;;1.40;0.90;;;;;;;8.25;100.00;96273.84;5022037;28;20248;-67
2024/03/13 07:38:01;;;;;;;1.27;1.13;;;;;;;8.17;100.00;96281.69;5026768;28;20318;-67
2024/03/13 07:40:31;;;;;;;1.80;1.33;;;;;;;8.26;100.00;96278.09;5020454;28;20205;-67
2024/03/13 07:42:58;;;;;;;2.87;1.37;;;;;;;8.23;100.00;96283.69;5021346;28;20209;-67
2024/03/13 07:45:26;;;;;;;1.27;1.00;;;;;;;7.82;100.00;96281.91;5020554;28;20725;-69
2024/03/13 07:47:52;;;;;;;1.17;1.07;;;;;;;7.88;100.00;96289.97;5020629;28;20231;-67
2024/03/13 07:50:19;;;;;;;1.37;1.27;;;;;;;8.02;100.00;96288.53;5020345;28;20205;-67
2024/03/13 07:52:46;;;;;;;3.47;1.60;;;;;;;7.80;100.00;96291.72;5023055;28;20208;-67
2024/03/13 07:55:13;;;;;;;1.17;1.07;;;;;;;7.85;100.00;96294.69;5019734;28;20225;-67
2024/03/13 07:57:39;;;;;;;2.50;1.30;;;;;;;8.15;100.00;96296.81;5020599;28;20401;-67
2024/03/13 08:00:06;;;;;;;2.20;1.20;;;;;;;7.86;100.00;96300.78;5017255;28;20209;-67
2024/03/13 08:02:33;;;;;;;2.83;1.70;;;;;;;8.12;100.00;96294.44;5020033;28;20205;-68
2024/03/13 08:05:02;;;;;;;5.37;2.30;;;;;;;8.37;100.00;96298.81;5019789;28;20229;-67
2024/03/13 08:07:31;;;;;;;2.23;1.10;;;;;;;8.56;100.00;96301.94;5019763;28;20229;-68
2024/03/13 08:09:58;;;;;;;2.17;1.67;;;;;;;8.33;100.00;96302.75;5025485;28;20209;-67
2024/03/13 08:12:24;;;;;;;1.87;1.40;;;;;;;8.39;100.00;96302.91;5020008;28;20212;-67
2024/03/13 08:14:51;;;;;;;1.60;1.23;;;;;;;8.23;100.00;96307.31;5023623;28;20597;-67
2024/03/13 08:17:18;;;;;;;1.77;1.50;;;;;;;8.54;100.00;96307.38;5018839;28;20211;-67
2024/03/13 08:19:44;;;;;;;1.63;1.50;;;;;;;8.86;100.00;96304.75;5023721;28;20209;-67
2024/03/13 08:22:11;;;;;;;2.10;1.30;;;;;;;8.94;100.00;96307.38;5019811;28;20201;-67
2024/03/13 08:24:38;;;;;;;1.40;1.30;;;;;;;9.11;100.00;96320.34;5018680;28;20823;-67
2024/03/13 08:27:04;;;;;;;2.70;1.40;;;;;;;8.96;100.00;96315.06;5019474;28;20598;-67
2024/03/13 08:29:31;;;;;;;2.27;1.43;;;;;;;8.53;100.00;96316.22;5020201;28;20201;-67
2024/03/13 08:31:58;;;;;;;1.57;1.20;;;;;;;8.80;100.00;96320.34;5022785;28;20216;-67
2024/03/13 08:34:24;;;;;;;3.97;1.80;;;;;;;8.94;100.00;96325.75;5018261;28;20225;-67
2024/03/13 08:36:51;;;;;;;2.60;1.70;;;;;;;8.89;100.00;96322.81;5017740;28;20679;-66
2024/03/13 08:39:25;;;;;;;3.27;1.30;;;;;;;9.17;100.00;96318.84;5018641;28;20201;-67
2024/03/13 08:41:52;;;;;;;2.37;1.73;;;;;;;9.27;100.00;96330.00;5024753;28;20208;-67
2024/03/13 08:44:19;;;;;;;1.97;1.40;;;;;;;9.09;100.00;96332.00;5018414;28;20228;-67
2024/03/13 08:46:45;;;;;;;2.80;1.27;;;;;;;8.78;100.00;96320.53;5022350;28;20212;-66
2024/03/13 08:49:12;;;;;;;1.83;1.33;;;;;;;8.89;100.00;96325.44;5018380;28;20216;-66
2024/03/13 08:51:39;;;;;;;1.57;1.07;;;;;;;9.11;100.00;96322.97;5018118;28;20212;-67
2024/03/13 08:54:06;;;;;;;3.77;1.30;;;;;;;9.14;100.00;96327.06;5019909;28;20996;-67
2024/03/13 08:56:37;;;;;;;16.70;2.17;;;;;;;9.50;100.00;96329.13;5017510;28;20549;-67
2024/03/13 08:59:04;;;;;;;2.67;1.20;;;;;;;9.21;100.00;96331.47;5019651;28;20201;-67
2024/03/13 09:01:30;;;;;;;1.80;1.23;;;;;;;9.56;100.00;96327.63;5025237;28;20216;-66
2024/03/13 09:03:57;;;;;;;2.10;1.17;;;;;;;9.31;100.00;96333.94;5019208;28;20229;-67
2024/03/13 09:06:24;;;;;;;2.07;1.30;;;;;;;9.34;100.00;96339.69;5017167;28;20240;-67
2024/03/13 09:08:50;;;;;;;6.90;1.50;;;;;;;9.66;100.00;96344.06;5017931;28;20240;-67
2024/03/13 09:11:18;;;;;;;2.00;1.40;;;;;;;9.68;100.00;96327.91;5018054;28;20205;-67
2024/03/13 09:13:44;;;;;;;1.17;1.07;;;;;;;9.55;100.00;96342.59;5019227;28;20225;-67
2024/03/13 09:16:14;;;;;;;1.73;1.13;;;;;;;9.77;100.00;96341.88;5019823;28;21436;-66
2024/03/13 09:18:41;;;;;;;1.23;1.03;;;;;;;9.45;100.00;96346.41;5018954;28;20208;-67
2024/03/13 09:21:08;;;;;;;4.37;1.10;;;;;;;9.44;100.00;96347.41;5020681;28;20211;-68
2024/03/13 09:23:35;;;;;;;1.10;0.90;;;;;;;9.67;100.00;96345.69;5018049;28;20205;-67
2024/03/13 09:26:02;;;;;;;2.83;1.20;;;;;;;9.70;100.00;96347.00;5019160;28;20232;-67
2024/03/13 09:28:29;;;;;;;2.80;1.40;;;;;;;9.66;100.00;96344.88;5017748;28;20725;-68
2024/03/13 09:30:55;;;;;;;1.73;1.20;;;;;;;9.68;100.00;96350.78;5018481;28;20201;-67
2024/03/13 09:33:22;;;;;;;3.47;1.40;;;;;;;9.89;100.00;96346.63;5017871;28;20586;-67
2024/03/13 09:35:49;;;;;;;6.10;1.20;;;;;;;9.90;100.00;96347.41;5017486;28;20220;-67
2024/03/13 09:38:17;;;;;;;1.47;1.30;;;;;;;9.98;100.00;96345.63;5018020;28;20203;-67
2024/03/13 09:40:44;;;;;;;3.33;1.10;;;;;;;10.00;100.00;96359.41;5018007;28;20205;-67
2024/03/13 09:43:10;;;;;;;1.77;1.10;;;;;;;10.02;100.00;96351.38;5017351;28;20201;-67
2024/03/13 09:45:38;;;;;;;2.43;1.30;;;;;;;10.15;100.00;96356.91;5016409;28;21150;-67
2024/03/13 09:48:06;;;;;;;1.60;1.20;;;;;;;10.06;100.00;96353.47;5020083;28;21068;-68
2024/03/13 09:50:32;;;;;;;2.97;1.27;;;;;;;9.92;100.00;96356.78;5020707;28;20205;-68
2024/03/13 09:53:00;;;;;;;2.60;1.67;;;;;;;10.07;100.00;96355.13;5019358;28;20205;-68
2024/03/13 09:55:27;;;;;;;4.67;2.70;;;;;;;10.18;100.00;96351.28;5021423;28;20306;-68
2024/03/13 09:57:53;;;;;;;4.90;2.70;;;;;;;10.33;100.00;96345.97;5023864;28;20211;-68
2024/03/13 10:00:20;;;;;;;4.27;1.73;;;;;;;10.10;100.00;96367.94;5022006;28;20209;-68
2024/03/13 10:02:47;;;;;;;3.80;2.10;;;;;;;9.95;100.00;96366.16;5028462;28;20237;-68
2024/03/13 10:05:14;;;;;;;1.87;1.27;;;;;;;10.03;100.00;96364.38;5029630;28;20244;-68
2024/03/13 10:07:40;;;;;;;1.63;1.10;;;;;;;10.05;100.00;96362.38;5027599;28;20240;-67
2024/03/13 10:10:09;;;;;;;1.97;1.17;;;;;;;10.40;100.00;96367.16;5026061;28;20209;-67
2024/03/13 10:12:36;;;;;;;2.63;1.50;;;;;;;10.40;100.00;96354.00;5022922;28;20280;-68
2024/03/13 10:15:06;;;;;;;3.47;1.77;;;;;;;10.26;100.00;96365.25;5024417;28;21117;-68
2024/03/13 10:17:34;;;;;;;1.10;1.00;;;;;;;10.06;100.00;96363.19;5028147;28;20633;-68
2024/03/13 10:20:01;;;;;;;2.97;1.50;;;;;;;10.25;100.00;96363.59;5031005;28;20717;-67
2024/03/13 10:22:28;;;;;;;2.37;1.30;;;;;;;10.56;100.00;96361.78;5030887;28;20208;-68
2024/03/13 10:24:54;;;;;;;2.53;1.80;;;;;;;10.73;100.00;96358.88;5031474;28;20229;-67
2024/03/13 10:27:22;;;;;;;1.70;1.10;;;;;;;10.62;100.00;96361.09;5030014;28;20900;-68
2024/03/13 10:29:48;;;;;;;6.03;1.83;;;;;;;10.71;100.00;96360.06;5026242;28;20199;-68
2024/03/13 10:32:16;;;;;;;2.47;1.80;;;;;;;10.43;100.00;96357.06;5027304;28;20205;-68
2024/03/13 10:34:42;;;;;;;1.73;1.17;;;;;;;10.69;100.00;96359.41;5030758;28;20264;-68
2024/03/13 10:37:12;;;;;;;2.67;1.50;;;;;;;10.62;100.00;96361.91;5029432;28;20212;-68
2024/03/13 10:39:41;;;;;;;1.00;0.90;;;;;;;10.65;100.00;96361.56;5030821;28;20201;-68
2024/03/13 10:42:08;;;;;;;1.83;1.10;;;;;;;10.89;100.00;96355.31;5028923;28;20201;-68
2024/03/13 10:44:35;;;;;;;1.43;1.00;;;;;;;10.75;100.00;96356.88;5023074;28;20260;-68
2024/03/13 10:47:01;;;;;;;1.23;0.90;;;;;;;10.70;100.00;96363.69;5025556;28;20881;-68
2024/03/13 10:49:28;;;;;;;1.60;1.00;;;;;;;10.67;100.00;96361.41;5020293;28;20315;-67
2024/03/13 10:51:56;;;;;;;1.30;1.00;;;;;;;11.01;100.00;96355.53;5029173;28;20201;-67
2024/03/13 10:54:23;;;;;;;3.20;1.17;;;;;;;10.85;100.00;96352.19;5022219;28;20802;-67
2024/03/13 10:56:51;;;;;;;1.47;1.30;;;;;;;10.97;100.00;96362.16;5029714;28;20213;-68
2024/03/13 10:59:18;;;;;;;1.60;1.20;;;;;;;10.80;100.00;96372.19;5021183;28;20633;-67
2024/03/13 11:01:49;;;;;;;1.07;0.93;;;;;;;10.78;100.00;96369.72;5030194;28;20288;-67
2024/03/13 11:04:16;;;;;;;1.57;1.10;;;;;;;11.18;100.00;96362.31;5029343;28;20229;-67
2024/03/13 11:06:42;;;;;;;1.07;0.90;;;;;;;11.02;100.00;96357.19;5027373;28;20216;-68
2024/03/13 11:09:16;;;;;;;1.20;1.10;;;;;;;11.34;100.00;96359.56;5027859;28;20706;-68
2024/03/13 11:11:42;;;;;;;1.43;1.17;;;;;;;11.24;100.00;96351.06;5035063;28;20596;-68
2024/03/13 11:14:09;;;;;;;1.23;0.80;;;;;;;11.20;100.00;96357.69;5030228;28;20235;-67
2024/03/13 11:16:36;;;;;;;1.33;1.10;;;;;;;11.45;100.00;96359.09;5029184;28;20675;-67
2024/03/13 11:19:03;;;;;;;1.57;1.10;;;;;;;11.30;100.00;96362.72;5024287;28;20197;-67
2024/03/13 11:21:31;;;;;;;1.10;1.00;;;;;;;11.34;100.00;96361.34;5029190;28;20267;-66
2024/03/13 11:23:58;;;;;;;1.43;1.00;;;;;;;11.51;100.00;96354.97;5028041;28;20220;-67
2024/03/13 11:26:25;;;;;;;1.10;0.70;;;;;;;11.63;100.00;96351.72;5028300;28;20198;-68
2024/03/13 11:28:54;;;;;;;1.30;1.13;;;;;;;11.68;100.00;96347.53;5030222;28;20235;-67
2024/03/13 11:31:20;;;;;;;0.87;0.87;;;;;;;11.12;100.00;96354.28;5032068;28;20216;-67
2024/03/13 11:33:47;;;;;;;1.20;0.87;;;;;;;11.48;100.00;96356.13;5030649;28;20263;-68
2024/03/13 11:36:13;;;;;;;0.97;0.70;;;;;;;11.55;100.00;96344.69;5030234;28;20208;-68
2024/03/13 11:38:40;;;;;;;2.30;1.23;;;;;;;11.56;100.00;96348.97;5031307;28;20197;-68
2024/03/13 11:41:07;;;;;;;1.03;0.90;;;;;;;11.46;100.00;96346.75;5028534;28;20205;-67
2024/03/13 11:43:34;;;;;;;1.03;0.93;;;;;;;11.56;100.00;96342.88;5028526;28;20209;-68
2024/03/13 11:46:01;;;;;;;0.70;0.63;;;;;;;11.71;100.00;96346.34;5026777;28;20213;-68
2024/03/13 11:48:27;;;;;;;1.10;0.80;;;;;;;11.47;100.00;96338.66;5029923;28;20232;-67
2024/03/13 11:51:07;;;;;;;1.47;0.80;;;;;;;11.52;100.00;96331.06;5028188;28;20211;-68
2024/03/13 11:53:34;;;;;;;0.90;0.80;;;;;;;11.59;100.00;96337.22;5032296;28;20354;-67